sensor_id;sensor_type;location;lat;lon;timestamp;P1;durP1;ratioP1;P2;durP2;ratioP2
13173;SDS011;6652;48.802;9.190;2023-07-29T00:02:07;6.80;;;4.55;;
13173;SDS011;6652;48.802;9.190;2023-07-29T00:04:39;10.05;;;4.47;;
13173;SDS011;6652;48.802;9.190;2023-07-29T00:07:06;5.72;;;4.38;;
13173;SDS011;6652;48.802;9.190;2023-07-29T00:09:33;6.47;;;4.53;;
13173;SDS011;6652;48.802;9.190;2023-07-29T00:12:01;6.95;;;3.65;;
13173;SDS011;6652;48.802;9.190;2023-07-29T00:14:28;4.90;;;2.80;;
13173;SDS011;6652;48.802;9.190;2023-07-29T00:16:55;4.22;;;3.10;;
13173;SDS011;6652;48.802;9.190;2023-07-29T00:19:22;7.45;;;3.90;;
13173;SDS011;6652;48.802;9.190;2023-07-29T00:21:49;12.15;;;3.20;;
13173;SDS011;6652;48.802;9.190;2023-07-29T00:24:16;9.65;;;3.63;;
13173;SDS011;6652;48.802;9.190;2023-07-29T00:26:43;5.85;;;3.33;;
13173;SDS011;6652;48.802;9.190;2023-07-29T00:29:11;2.90;;;2.70;;
13173;SDS011;6652;48.802;9.190;2023-07-29T00:31:37;5.82;;;2.50;;
13173;SDS011;6652;48.802;9.190;2023-07-29T00:34:04;7.20;;;3.03;;
13173;SDS011;6652;48.802;9.190;2023-07-29T00:36:31;7.47;;;3.20;;
13173;SDS011;6652;48.802;9.190;2023-07-29T00:38:58;8.40;;;2.90;;
13173;SDS011;6652;48.802;9.190;2023-07-29T00:41:25;10.10;;;3.50;;
13173;SDS011;6652;48.802;9.190;2023-07-29T00:43:52;15.35;;;10.00;;
13173;SDS011;6652;48.802;9.190;2023-07-29T00:46:20;5.75;;;3.35;;
13173;SDS011;6652;48.802;9.190;2023-07-29T00:48:48;2.75;;;2.38;;
13173;SDS011;6652;48.802;9.190;2023-07-29T00:51:15;4.70;;;3.05;;
13173;SDS011;6652;48.802;9.190;2023-07-29T00:53:41;9.82;;;3.40;;
13173;SDS011;6652;48.802;9.190;2023-07-29T00:56:08;8.63;;;3.38;;
13173;SDS011;6652;48.802;9.190;2023-07-29T00:58:35;13.82;;;3.78;;
13173;SDS011;6652;48.802;9.190;2023-07-29T01:01:02;7.18;;;3.40;;
13173;SDS011;6652;48.802;9.190;2023-07-29T01:03:30;4.82;;;3.08;;
13173;SDS011;6652;48.802;9.190;2023-07-29T01:06:00;7.75;;;3.10;;
13173;SDS011;6652;48.802;9.190;2023-07-29T01:08:37;14.93;;;3.67;;
13173;SDS011;6652;48.802;9.190;2023-07-29T01:11:14;7.43;;;3.50;;
13173;SDS011;6652;48.802;9.190;2023-07-29T01:13:50;6.03;;;3.28;;
13173;SDS011;6652;48.802;9.190;2023-07-29T01:16:21;4.82;;;2.92;;
13173;SDS011;6652;48.802;9.190;2023-07-29T01:18:53;5.53;;;2.90;;
13173;SDS011;6652;48.802;9.190;2023-07-29T01:21:21;9.25;;;3.55;;
13173;SDS011;6652;48.802;9.190;2023-07-29T01:23:53;7.28;;;3.30;;
13173;SDS011;6652;48.802;9.190;2023-07-29T01:26:23;6.88;;;3.25;;
13173;SDS011;6652;48.802;9.190;2023-07-29T01:28:51;5.18;;;3.30;;
13173;SDS011;6652;48.802;9.190;2023-07-29T01:31:19;8.32;;;3.30;;
13173;SDS011;6652;48.802;9.190;2023-07-29T01:33:53;12.50;;;4.03;;
13173;SDS011;6652;48.802;9.190;2023-07-29T01:36:25;9.02;;;3.78;;
13173;SDS011;6652;48.802;9.190;2023-07-29T01:38:56;7.03;;;3.55;;
13173;SDS011;6652;48.802;9.190;2023-07-29T01:41:25;8.00;;;3.50;;
13173;SDS011;6652;48.802;9.190;2023-07-29T01:43:52;4.85;;;2.95;;
13173;SDS011;6652;48.802;9.190;2023-07-29T01:46:20;4.18;;;3.20;;
13173;SDS011;6652;48.802;9.190;2023-07-29T01:48:47;10.98;;;3.25;;
13173;SDS011;6652;48.802;9.190;2023-07-29T01:51:14;8.98;;;2.78;;
13173;SDS011;6652;48.802;9.190;2023-07-29T01:53:41;9.85;;;2.90;;
13173;SDS011;6652;48.802;9.190;2023-07-29T01:56:09;5.22;;;2.72;;
13173;SDS011;6652;48.802;9.190;2023-07-29T01:58:36;6.68;;;2.40;;
13173;SDS011;6652;48.802;9.190;2023-07-29T02:01:02;5.45;;;2.58;;
13173;SDS011;6652;48.802;9.190;2023-07-29T02:03:29;7.00;;;2.30;;
13173;SDS011;6652;48.802;9.190;2023-07-29T02:05:56;6.45;;;2.80;;
13173;SDS011;6652;48.802;9.190;2023-07-29T02:08:23;5.35;;;2.83;;
13173;SDS011;6652;48.802;9.190;2023-07-29T02:10:50;5.07;;;2.78;;
13173;SDS011;6652;48.802;9.190;2023-07-29T02:13:18;8.23;;;2.70;;
13173;SDS011;6652;48.802;9.190;2023-07-29T02:15:45;5.32;;;2.40;;
13173;SDS011;6652;48.802;9.190;2023-07-29T02:18:11;6.25;;;2.40;;
13173;SDS011;6652;48.802;9.190;2023-07-29T02:20:38;3.40;;;2.20;;
13173;SDS011;6652;48.802;9.190;2023-07-29T02:23:05;3.03;;;2.25;;
13173;SDS011;6652;48.802;9.190;2023-07-29T02:25:34;7.30;;;2.35;;
13173;SDS011;6652;48.802;9.190;2023-07-29T02:28:01;6.30;;;2.47;;
13173;SDS011;6652;48.802;9.190;2023-07-29T02:30:31;5.93;;;2.92;;
13173;SDS011;6652;48.802;9.190;2023-07-29T02:32:57;5.82;;;2.53;;
13173;SDS011;6652;48.802;9.190;2023-07-29T02:35:25;5.68;;;2.72;;
13173;SDS011;6652;48.802;9.190;2023-07-29T02:37:52;3.35;;;2.30;;
13173;SDS011;6652;48.802;9.190;2023-07-29T02:40:18;7.03;;;2.70;;
13173;SDS011;6652;48.802;9.190;2023-07-29T02:42:46;2.85;;;2.40;;
13173;SDS011;6652;48.802;9.190;2023-07-29T02:45:12;6.00;;;2.80;;
13173;SDS011;6652;48.802;9.190;2023-07-29T02:47:41;5.45;;;2.75;;
13173;SDS011;6652;48.802;9.190;2023-07-29T02:50:08;4.85;;;2.65;;
13173;SDS011;6652;48.802;9.190;2023-07-29T02:52:35;4.25;;;2.33;;
13173;SDS011;6652;48.802;9.190;2023-07-29T02:55:02;4.18;;;2.35;;
13173;SDS011;6652;48.802;9.190;2023-07-29T02:57:29;4.93;;;2.50;;
13173;SDS011;6652;48.802;9.190;2023-07-29T02:59:56;5.57;;;2.50;;
13173;SDS011;6652;48.802;9.190;2023-07-29T03:02:23;7.85;;;2.40;;
13173;SDS011;6652;48.802;9.190;2023-07-29T03:04:51;3.72;;;2.50;;
13173;SDS011;6652;48.802;9.190;2023-07-29T03:07:18;3.47;;;2.53;;
13173;SDS011;6652;48.802;9.190;2023-07-29T03:09:45;3.53;;;2.50;;
13173;SDS011;6652;48.802;9.190;2023-07-29T03:12:12;5.63;;;2.88;;
13173;SDS011;6652;48.802;9.190;2023-07-29T03:14:39;3.97;;;2.60;;
13173;SDS011;6652;48.802;9.190;2023-07-29T03:17:06;4.15;;;2.90;;
13173;SDS011;6652;48.802;9.190;2023-07-29T03:19:33;7.35;;;3.15;;
13173;SDS011;6652;48.802;9.190;2023-07-29T03:22:01;7.22;;;3.20;;
13173;SDS011;6652;48.802;9.190;2023-07-29T03:24:28;5.45;;;3.33;;
13173;SDS011;6652;48.802;9.190;2023-07-29T03:26:55;4.65;;;3.22;;
13173;SDS011;6652;48.802;9.190;2023-07-29T03:29:22;6.28;;;2.33;;
13173;SDS011;6652;48.802;9.190;2023-07-29T03:31:48;4.80;;;2.13;;
13173;SDS011;6652;48.802;9.190;2023-07-29T03:34:15;4.47;;;1.90;;
13173;SDS011;6652;48.802;9.190;2023-07-29T03:36:42;2.28;;;1.73;;
13173;SDS011;6652;48.802;9.190;2023-07-29T03:39:12;3.03;;;2.00;;
13173;SDS011;6652;48.802;9.190;2023-07-29T03:41:39;3.17;;;1.90;;
13173;SDS011;6652;48.802;9.190;2023-07-29T03:44:05;4.18;;;2.10;;
13173;SDS011;6652;48.802;9.190;2023-07-29T03:46:32;2.83;;;1.70;;
13173;SDS011;6652;48.802;9.190;2023-07-29T03:48:59;1.90;;;1.60;;
13173;SDS011;6652;48.802;9.190;2023-07-29T03:51:26;5.80;;;1.58;;
13173;SDS011;6652;48.802;9.190;2023-07-29T03:53:53;1.83;;;1.58;;
13173;SDS011;6652;48.802;9.190;2023-07-29T03:56:21;3.47;;;1.80;;
13173;SDS011;6652;48.802;9.190;2023-07-29T03:58:48;3.92;;;1.65;;
13173;SDS011;6652;48.802;9.190;2023-07-29T04:01:15;1.90;;;1.63;;
13173;SDS011;6652;48.802;9.190;2023-07-29T04:03:42;5.05;;;1.80;;
13173;SDS011;6652;48.802;9.190;2023-07-29T04:06:08;4.25;;;2.00;;
13173;SDS011;6652;48.802;9.190;2023-07-29T04:08:35;7.45;;;2.40;;
13173;SDS011;6652;48.802;9.190;2023-07-29T04:11:02;8.85;;;2.28;;
13173;SDS011;6652;48.802;9.190;2023-07-29T04:13:31;4.93;;;2.55;;
13173;SDS011;6652;48.802;9.190;2023-07-29T04:15:57;2.95;;;2.00;;
13173;SDS011;6652;48.802;9.190;2023-07-29T04:18:36;3.75;;;2.15;;
13173;SDS011;6652;48.802;9.190;2023-07-29T04:21:02;4.70;;;1.98;;
13173;SDS011;6652;48.802;9.190;2023-07-29T04:23:29;8.93;;;1.95;;
13173;SDS011;6652;48.802;9.190;2023-07-29T04:25:56;5.88;;;2.25;;
13173;SDS011;6652;48.802;9.190;2023-07-29T04:28:23;5.38;;;2.00;;
13173;SDS011;6652;48.802;9.190;2023-07-29T04:30:51;2.50;;;2.05;;
13173;SDS011;6652;48.802;9.190;2023-07-29T04:33:18;5.60;;;2.28;;
13173;SDS011;6652;48.802;9.190;2023-07-29T04:35:45;3.38;;;1.77;;
13173;SDS011;6652;48.802;9.190;2023-07-29T04:38:12;3.25;;;2.28;;
13173;SDS011;6652;48.802;9.190;2023-07-29T04:40:38;4.88;;;2.13;;
13173;SDS011;6652;48.802;9.190;2023-07-29T04:43:05;7.72;;;2.47;;
13173;SDS011;6652;48.802;9.190;2023-07-29T04:45:32;9.25;;;2.30;;
13173;SDS011;6652;48.802;9.190;2023-07-29T04:48:00;6.30;;;2.40;;
13173;SDS011;6652;48.802;9.190;2023-07-29T04:50:27;5.65;;;2.40;;
13173;SDS011;6652;48.802;9.190;2023-07-29T04:52:54;4.78;;;2.38;;
13173;SDS011;6652;48.802;9.190;2023-07-29T04:55:21;6.75;;;2.60;;
13173;SDS011;6652;48.802;9.190;2023-07-29T04:57:48;10.52;;;2.75;;
13173;SDS011;6652;48.802;9.190;2023-07-29T05:00:15;6.65;;;2.40;;
13173;SDS011;6652;48.802;9.190;2023-07-29T05:02:42;6.30;;;2.58;;
13173;SDS011;6652;48.802;9.190;2023-07-29T05:05:10;10.73;;;2.60;;
13173;SDS011;6652;48.802;9.190;2023-07-29T05:07:37;4.00;;;2.50;;
13173;SDS011;6652;48.802;9.190;2023-07-29T05:10:04;5.90;;;2.85;;
13173;SDS011;6652;48.802;9.190;2023-07-29T05:12:32;5.18;;;2.55;;
13173;SDS011;6652;48.802;9.190;2023-07-29T05:14:59;6.40;;;2.30;;
13173;SDS011;6652;48.802;9.190;2023-07-29T05:17:26;5.35;;;2.42;;
13173;SDS011;6652;48.802;9.190;2023-07-29T05:19:53;9.32;;;3.20;;
13173;SDS011;6652;48.802;9.190;2023-07-29T05:22:21;4.97;;;2.30;;
13173;SDS011;6652;48.802;9.190;2023-07-29T05:24:48;7.85;;;2.80;;
13173;SDS011;6652;48.802;9.190;2023-07-29T05:27:14;6.95;;;2.55;;
13173;SDS011;6652;48.802;9.190;2023-07-29T05:29:41;7.03;;;3.05;;
13173;SDS011;6652;48.802;9.190;2023-07-29T05:32:08;7.05;;;2.83;;
13173;SDS011;6652;48.802;9.190;2023-07-29T05:34:35;9.68;;;2.97;;
13173;SDS011;6652;48.802;9.190;2023-07-29T05:37:02;9.43;;;3.20;;
13173;SDS011;6652;48.802;9.190;2023-07-29T05:39:30;7.63;;;2.92;;
13173;SDS011;6652;48.802;9.190;2023-07-29T05:42:03;9.43;;;3.17;;
13173;SDS011;6652;48.802;9.190;2023-07-29T05:44:33;4.00;;;2.83;;
13173;SDS011;6652;48.802;9.190;2023-07-29T05:47:00;7.43;;;2.65;;
13173;SDS011;6652;48.802;9.190;2023-07-29T05:49:27;9.95;;;4.20;;
13173;SDS011;6652;48.802;9.190;2023-07-29T05:51:54;7.60;;;2.38;;
13173;SDS011;6652;48.802;9.190;2023-07-29T05:54:21;9.40;;;2.50;;
13173;SDS011;6652;48.802;9.190;2023-07-29T05:56:49;6.55;;;2.33;;
13173;SDS011;6652;48.802;9.190;2023-07-29T05:59:22;3.95;;;2.30;;
13173;SDS011;6652;48.802;9.190;2023-07-29T06:01:49;8.00;;;2.42;;
13173;SDS011;6652;48.802;9.190;2023-07-29T06:04:16;5.47;;;2.80;;
13173;SDS011;6652;48.802;9.190;2023-07-29T06:06:43;3.42;;;2.33;;
13173;SDS011;6652;48.802;9.190;2023-07-29T06:09:09;6.68;;;2.60;;
13173;SDS011;6652;48.802;9.190;2023-07-29T06:14:10;8.45;;;3.40;;
13173;SDS011;6652;48.802;9.190;2023-07-29T06:16:36;9.85;;;4.03;;
13173;SDS011;6652;48.802;9.190;2023-07-29T06:19:03;7.13;;;3.03;;
13173;SDS011;6652;48.802;9.190;2023-07-29T06:21:30;4.18;;;2.20;;
13173;SDS011;6652;48.802;9.190;2023-07-29T06:23:57;6.82;;;2.70;;
13173;SDS011;6652;48.802;9.190;2023-07-29T06:26:24;6.03;;;2.15;;
13173;SDS011;6652;48.802;9.190;2023-07-29T06:28:51;5.03;;;2.35;;
13173;SDS011;6652;48.802;9.190;2023-07-29T06:31:19;6.68;;;2.95;;
13173;SDS011;6652;48.802;9.190;2023-07-29T06:33:47;6.82;;;2.80;;
13173;SDS011;6652;48.802;9.190;2023-07-29T06:36:14;8.10;;;2.40;;
13173;SDS011;6652;48.802;9.190;2023-07-29T06:38:40;8.32;;;2.70;;
13173;SDS011;6652;48.802;9.190;2023-07-29T06:41:07;8.73;;;2.20;;
13173;SDS011;6652;48.802;9.190;2023-07-29T06:43:34;8.43;;;3.03;;
13173;SDS011;6652;48.802;9.190;2023-07-29T06:46:01;5.50;;;3.17;;
13173;SDS011;6652;48.802;9.190;2023-07-29T06:48:29;7.22;;;2.17;;
13173;SDS011;6652;48.802;9.190;2023-07-29T06:50:55;8.07;;;2.55;;
13173;SDS011;6652;48.802;9.190;2023-07-29T06:53:25;3.33;;;2.15;;
13173;SDS011;6652;48.802;9.190;2023-07-29T06:55:52;5.88;;;2.30;;
13173;SDS011;6652;48.802;9.190;2023-07-29T06:58:19;4.13;;;2.30;;
13173;SDS011;6652;48.802;9.190;2023-07-29T07:00:47;6.78;;;2.78;;
13173;SDS011;6652;48.802;9.190;2023-07-29T07:03:13;6.25;;;2.72;;
13173;SDS011;6652;48.802;9.190;2023-07-29T07:05:41;5.75;;;2.60;;
13173;SDS011;6652;48.802;9.190;2023-07-29T07:08:08;7.18;;;2.75;;
13173;SDS011;6652;48.802;9.190;2023-07-29T07:10:35;4.57;;;2.60;;
13173;SDS011;6652;48.802;9.190;2023-07-29T07:13:02;7.72;;;2.90;;
13173;SDS011;6652;48.802;9.190;2023-07-29T07:15:29;8.68;;;2.42;;
13173;SDS011;6652;48.802;9.190;2023-07-29T07:17:55;5.88;;;2.78;;
13173;SDS011;6652;48.802;9.190;2023-07-29T07:20:22;17.35;;;7.53;;
13173;SDS011;6652;48.802;9.190;2023-07-29T07:22:50;6.60;;;2.38;;
13173;SDS011;6652;48.802;9.190;2023-07-29T07:25:17;3.42;;;2.33;;
13173;SDS011;6652;48.802;9.190;2023-07-29T07:27:44;4.15;;;2.17;;
13173;SDS011;6652;48.802;9.190;2023-07-29T07:30:11;3.63;;;2.28;;
13173;SDS011;6652;48.802;9.190;2023-07-29T07:32:39;4.68;;;2.28;;
13173;SDS011;6652;48.802;9.190;2023-07-29T07:35:06;2.25;;;1.83;;
13173;SDS011;6652;48.802;9.190;2023-07-29T07:37:33;4.32;;;1.70;;
13173;SDS011;6652;48.802;9.190;2023-07-29T07:40:01;4.05;;;1.77;;
13173;SDS011;6652;48.802;9.190;2023-07-29T07:42:28;2.55;;;1.60;;
13173;SDS011;6652;48.802;9.190;2023-07-29T07:45:02;2.35;;;1.55;;
13173;SDS011;6652;48.802;9.190;2023-07-29T07:47:29;3.50;;;1.58;;
13173;SDS011;6652;48.802;9.190;2023-07-29T07:49:56;2.65;;;1.50;;
13173;SDS011;6652;48.802;9.190;2023-07-29T07:52:23;4.55;;;1.25;;
13173;SDS011;6652;48.802;9.190;2023-07-29T07:54:51;3.15;;;1.52;;
13173;SDS011;6652;48.802;9.190;2023-07-29T07:57:20;4.95;;;2.25;;
13173;SDS011;6652;48.802;9.190;2023-07-29T07:59:47;8.32;;;1.55;;
13173;SDS011;6652;48.802;9.190;2023-07-29T08:02:14;3.75;;;2.00;;
13173;SDS011;6652;48.802;9.190;2023-07-29T08:07:54;4.45;;;1.20;;
13173;SDS011;6652;48.802;9.190;2023-07-29T08:10:31;3.50;;;1.58;;
13173;SDS011;6652;48.802;9.190;2023-07-29T08:13:00;5.25;;;2.00;;
13173;SDS011;6652;48.802;9.190;2023-07-29T08:15:28;3.05;;;1.77;;
13173;SDS011;6652;48.802;9.190;2023-07-29T08:17:55;3.63;;;1.33;;
13173;SDS011;6652;48.802;9.190;2023-07-29T08:20:22;4.78;;;1.40;;
13173;SDS011;6652;48.802;9.190;2023-07-29T08:22:49;8.07;;;2.28;;
13173;SDS011;6652;48.802;9.190;2023-07-29T08:25:15;3.83;;;1.40;;
13173;SDS011;6652;48.802;9.190;2023-07-29T08:27:42;4.72;;;1.40;;
13173;SDS011;6652;48.802;9.190;2023-07-29T08:30:10;7.13;;;1.55;;
13173;SDS011;6652;48.802;9.190;2023-07-29T08:32:37;6.47;;;2.00;;
13173;SDS011;6652;48.802;9.190;2023-07-29T08:35:04;7.90;;;2.08;;
13173;SDS011;6652;48.802;9.190;2023-07-29T08:37:31;7.30;;;1.40;;
13173;SDS011;6652;48.802;9.190;2023-07-29T08:39:58;1.58;;;1.10;;
13173;SDS011;6652;48.802;9.190;2023-07-29T08:42:26;3.55;;;1.33;;
13173;SDS011;6652;48.802;9.190;2023-07-29T08:44:57;2.10;;;1.35;;
13173;SDS011;6652;48.802;9.190;2023-07-29T08:47:33;3.05;;;1.40;;
13173;SDS011;6652;48.802;9.190;2023-07-29T08:50:01;2.38;;;1.20;;
13173;SDS011;6652;48.802;9.190;2023-07-29T08:52:29;4.97;;;1.27;;
13173;SDS011;6652;48.802;9.190;2023-07-29T08:54:57;2.83;;;1.30;;
13173;SDS011;6652;48.802;9.190;2023-07-29T08:57:24;3.63;;;1.35;;
13173;SDS011;6652;48.802;9.190;2023-07-29T08:59:51;3.08;;;1.05;;
13173;SDS011;6652;48.802;9.190;2023-07-29T09:02:18;2.95;;;1.45;;
13173;SDS011;6652;48.802;9.190;2023-07-29T09:04:46;1.38;;;0.93;;
13173;SDS011;6652;48.802;9.190;2023-07-29T09:07:13;4.32;;;1.00;;
13173;SDS011;6652;48.802;9.190;2023-07-29T09:09:40;2.38;;;0.95;;
13173;SDS011;6652;48.802;9.190;2023-07-29T09:12:07;2.38;;;1.10;;
13173;SDS011;6652;48.802;9.190;2023-07-29T09:14:36;6.22;;;1.13;;
13173;SDS011;6652;48.802;9.190;2023-07-29T09:17:06;2.70;;;0.98;;
13173;SDS011;6652;48.802;9.190;2023-07-29T09:19:33;2.65;;;1.23;;
13173;SDS011;6652;48.802;9.190;2023-07-29T09:22:01;5.03;;;1.60;;
13173;SDS011;6652;48.802;9.190;2023-07-29T09:24:29;1.95;;;1.65;;
13173;SDS011;6652;48.802;9.190;2023-07-29T09:26:57;5.10;;;1.50;;
13173;SDS011;6652;48.802;9.190;2023-07-29T09:29:27;2.15;;;1.38;;
13173;SDS011;6652;48.802;9.190;2023-07-29T09:31:56;2.63;;;1.20;;
13173;SDS011;6652;48.802;9.190;2023-07-29T09:34:43;24.63;;;1.95;;
13173;SDS011;6652;48.802;9.190;2023-07-29T09:37:13;0.95;;;0.88;;
13173;SDS011;6652;48.802;9.190;2023-07-29T09:39:43;2.30;;;1.30;;
13173;SDS011;6652;48.802;9.190;2023-07-29T09:42:11;3.30;;;1.10;;
13173;SDS011;6652;48.802;9.190;2023-07-29T09:44:41;2.05;;;1.48;;
13173;SDS011;6652;48.802;9.190;2023-07-29T09:47:08;0.90;;;0.90;;
13173;SDS011;6652;48.802;9.190;2023-07-29T09:49:35;4.13;;;1.10;;
13173;SDS011;6652;48.802;9.190;2023-07-29T09:52:02;2.05;;;1.10;;
13173;SDS011;6652;48.802;9.190;2023-07-29T09:54:31;5.40;;;1.30;;
13173;SDS011;6652;48.802;9.190;2023-07-29T09:57:00;1.20;;;1.10;;
13173;SDS011;6652;48.802;9.190;2023-07-29T09:59:30;1.42;;;1.25;;
13173;SDS011;6652;48.802;9.190;2023-07-29T10:02:00;2.70;;;1.02;;
13173;SDS011;6652;48.802;9.190;2023-07-29T10:04:27;1.27;;;1.02;;
13173;SDS011;6652;48.802;9.190;2023-07-29T10:06:55;2.88;;;1.20;;
13173;SDS011;6652;48.802;9.190;2023-07-29T10:09:23;1.38;;;1.23;;
13173;SDS011;6652;48.802;9.190;2023-07-29T10:11:52;1.67;;;1.10;;
13173;SDS011;6652;48.802;9.190;2023-07-29T10:14:20;1.58;;;1.20;;
13173;SDS011;6652;48.802;9.190;2023-07-29T10:16:48;1.20;;;1.10;;
13173;SDS011;6652;48.802;9.190;2023-07-29T10:19:16;2.15;;;1.20;;
13173;SDS011;6652;48.802;9.190;2023-07-29T10:21:44;6.00;;;1.23;;
13173;SDS011;6652;48.802;9.190;2023-07-29T10:24:15;1.67;;;1.02;;
13173;SDS011;6652;48.802;9.190;2023-07-29T10:26:46;3.10;;;1.20;;
13173;SDS011;6652;48.802;9.190;2023-07-29T10:29:17;3.92;;;1.42;;
13173;SDS011;6652;48.802;9.190;2023-07-29T10:31:46;9.05;;;1.50;;
13173;SDS011;6652;48.802;9.190;2023-07-29T10:34:13;4.00;;;1.00;;
13173;SDS011;6652;48.802;9.190;2023-07-29T10:36:41;2.60;;;1.30;;
13173;SDS011;6652;48.802;9.190;2023-07-29T10:39:08;2.50;;;1.13;;
13173;SDS011;6652;48.802;9.190;2023-07-29T10:41:56;1.58;;;1.05;;
13173;SDS011;6652;48.802;9.190;2023-07-29T10:47:15;2.85;;;1.10;;
13173;SDS011;6652;48.802;9.190;2023-07-29T10:49:44;9.00;;;1.15;;
13173;SDS011;6652;48.802;9.190;2023-07-29T10:52:12;1.77;;;1.10;;
13173;SDS011;6652;48.802;9.190;2023-07-29T10:54:43;1.98;;;0.80;;
13173;SDS011;6652;48.802;9.190;2023-07-29T10:57:13;5.63;;;1.17;;
13173;SDS011;6652;48.802;9.190;2023-07-29T10:59:41;1.15;;;0.93;;
13173;SDS011;6652;48.802;9.190;2023-07-29T11:02:20;2.75;;;0.90;;
13173;SDS011;6652;48.802;9.190;2023-07-29T11:04:47;3.13;;;1.17;;
13173;SDS011;6652;48.802;9.190;2023-07-29T11:07:19;1.70;;;1.00;;
13173;SDS011;6652;48.802;9.190;2023-07-29T11:09:56;1.13;;;1.02;;
13173;SDS011;6652;48.802;9.190;2023-07-29T11:12:40;1.77;;;0.93;;
13173;SDS011;6652;48.802;9.190;2023-07-29T11:15:14;1.73;;;1.33;;
13173;SDS011;6652;48.802;9.190;2023-07-29T11:17:44;2.55;;;1.60;;
13173;SDS011;6652;48.802;9.190;2023-07-29T11:20:12;4.90;;;4.00;;
13173;SDS011;6652;48.802;9.190;2023-07-29T11:22:40;6.57;;;1.23;;
13173;SDS011;6652;48.802;9.190;2023-07-29T11:25:08;2.10;;;1.20;;
13173;SDS011;6652;48.802;9.190;2023-07-29T11:27:36;2.60;;;1.10;;
13173;SDS011;6652;48.802;9.190;2023-07-29T11:30:04;1.10;;;0.82;;
13173;SDS011;6652;48.802;9.190;2023-07-29T11:32:33;1.80;;;0.90;;
13173;SDS011;6652;48.802;9.190;2023-07-29T11:35:03;2.33;;;1.00;;
13173;SDS011;6652;48.802;9.190;2023-07-29T11:37:32;1.48;;;1.15;;
13173;SDS011;6652;48.802;9.190;2023-07-29T11:40:00;3.25;;;1.00;;
13173;SDS011;6652;48.802;9.190;2023-07-29T11:42:27;3.97;;;1.05;;
13173;SDS011;6652;48.802;9.190;2023-07-29T11:44:56;1.92;;;1.10;;
13173;SDS011;6652;48.802;9.190;2023-07-29T11:47:23;2.00;;;1.27;;
13173;SDS011;6652;48.802;9.190;2023-07-29T11:49:54;1.50;;;1.08;;
13173;SDS011;6652;48.802;9.190;2023-07-29T11:52:39;1.27;;;1.17;;
13173;SDS011;6652;48.802;9.190;2023-07-29T11:55:07;2.25;;;1.15;;
13173;SDS011;6652;48.802;9.190;2023-07-29T11:57:35;7.15;;;1.55;;
13173;SDS011;6652;48.802;9.190;2023-07-29T12:00:05;1.63;;;1.27;;
13173;SDS011;6652;48.802;9.190;2023-07-29T12:02:35;1.52;;;1.25;;
13173;SDS011;6652;48.802;9.190;2023-07-29T12:05:04;3.53;;;1.30;;
13173;SDS011;6652;48.802;9.190;2023-07-29T12:07:39;4.88;;;1.83;;
13173;SDS011;6652;48.802;9.190;2023-07-29T12:10:08;1.75;;;1.20;;
13173;SDS011;6652;48.802;9.190;2023-07-29T12:12:43;1.38;;;1.20;;
13173;SDS011;6652;48.802;9.190;2023-07-29T12:15:22;1.42;;;1.33;;
13173;SDS011;6652;48.802;9.190;2023-07-29T12:17:53;2.05;;;1.30;;
13173;SDS011;6652;48.802;9.190;2023-07-29T12:20:26;4.82;;;1.38;;
13173;SDS011;6652;48.802;9.190;2023-07-29T12:22:57;3.17;;;1.58;;
13173;SDS011;6652;48.802;9.190;2023-07-29T12:25:26;4.22;;;1.80;;
13173;SDS011;6652;48.802;9.190;2023-07-29T12:27:53;5.15;;;1.40;;
13173;SDS011;6652;48.802;9.190;2023-07-29T12:30:20;2.28;;;1.60;;
13173;SDS011;6652;48.802;9.190;2023-07-29T12:32:48;2.03;;;1.40;;
13173;SDS011;6652;48.802;9.190;2023-07-29T12:35:14;6.32;;;1.92;;
13173;SDS011;6652;48.802;9.190;2023-07-29T12:37:41;3.45;;;1.27;;
13173;SDS011;6652;48.802;9.190;2023-07-29T12:40:20;4.63;;;1.70;;
13173;SDS011;6652;48.802;9.190;2023-07-29T12:42:48;4.93;;;1.63;;
13173;SDS011;6652;48.802;9.190;2023-07-29T12:45:15;1.35;;;1.25;;
13173;SDS011;6652;48.802;9.190;2023-07-29T12:47:43;2.92;;;1.42;;
13173;SDS011;6652;48.802;9.190;2023-07-29T12:50:11;2.53;;;1.48;;
13173;SDS011;6652;48.802;9.190;2023-07-29T12:52:37;2.25;;;1.65;;
13173;SDS011;6652;48.802;9.190;2023-07-29T12:55:05;2.55;;;1.42;;
13173;SDS011;6652;48.802;9.190;2023-07-29T12:57:35;3.83;;;1.10;;
13173;SDS011;6652;48.802;9.190;2023-07-29T13:00:02;3.15;;;1.98;;
13173;SDS011;6652;48.802;9.190;2023-07-29T13:02:29;3.33;;;1.30;;
13173;SDS011;6652;48.802;9.190;2023-07-29T13:04:56;8.45;;;1.45;;
13173;SDS011;6652;48.802;9.190;2023-07-29T13:07:23;1.30;;;1.20;;
13173;SDS011;6652;48.802;9.190;2023-07-29T13:09:50;2.00;;;1.60;;
13173;SDS011;6652;48.802;9.190;2023-07-29T13:12:17;1.98;;;1.48;;
13173;SDS011;6652;48.802;9.190;2023-07-29T13:14:45;2.80;;;1.73;;
13173;SDS011;6652;48.802;9.190;2023-07-29T13:17:12;1.48;;;1.38;;
13173;SDS011;6652;48.802;9.190;2023-07-29T13:19:38;1.33;;;1.23;;
13173;SDS011;6652;48.802;9.190;2023-07-29T13:22:05;1.80;;;1.50;;
13173;SDS011;6652;48.802;9.190;2023-07-29T13:24:32;4.30;;;1.40;;
13173;SDS011;6652;48.802;9.190;2023-07-29T13:26:59;1.95;;;1.52;;
13173;SDS011;6652;48.802;9.190;2023-07-29T13:29:26;1.67;;;1.42;;
13173;SDS011;6652;48.802;9.190;2023-07-29T13:31:54;2.17;;;1.20;;
13173;SDS011;6652;48.802;9.190;2023-07-29T13:34:20;4.00;;;1.50;;
13173;SDS011;6652;48.802;9.190;2023-07-29T13:36:47;1.40;;;1.30;;
13173;SDS011;6652;48.802;9.190;2023-07-29T13:39:14;1.92;;;1.60;;
13173;SDS011;6652;48.802;9.190;2023-07-29T13:41:41;2.97;;;1.50;;
13173;SDS011;6652;48.802;9.190;2023-07-29T13:44:08;1.50;;;1.40;;
13173;SDS011;6652;48.802;9.190;2023-07-29T13:46:35;1.58;;;1.48;;
13173;SDS011;6652;48.802;9.190;2023-07-29T13:49:03;3.88;;;1.52;;
13173;SDS011;6652;48.802;9.190;2023-07-29T13:51:30;1.73;;;1.60;;
13173;SDS011;6652;48.802;9.190;2023-07-29T13:53:57;1.55;;;1.30;;
13173;SDS011;6652;48.802;9.190;2023-07-29T13:56:23;5.47;;;1.60;;
13173;SDS011;6652;48.802;9.190;2023-07-29T13:58:50;1.50;;;1.30;;
13173;SDS011;6652;48.802;9.190;2023-07-29T14:01:17;2.03;;;1.42;;
13173;SDS011;6652;48.802;9.190;2023-07-29T14:06:30;1.77;;;1.55;;
13173;SDS011;6652;48.802;9.190;2023-07-29T14:08:56;5.20;;;1.52;;
13173;SDS011;6652;48.802;9.190;2023-07-29T14:11:23;2.10;;;1.48;;
13173;SDS011;6652;48.802;9.190;2023-07-29T14:13:50;1.60;;;1.35;;
13173;SDS011;6652;48.802;9.190;2023-07-29T14:16:17;7.72;;;1.35;;
13173;SDS011;6652;48.802;9.190;2023-07-29T14:18:44;3.80;;;1.75;;
13173;SDS011;6652;48.802;9.190;2023-07-29T14:21:12;1.67;;;1.30;;
13173;SDS011;6652;48.802;9.190;2023-07-29T14:23:39;5.32;;;1.55;;
13173;SDS011;6652;48.802;9.190;2023-07-29T14:26:06;1.65;;;1.55;;
13173;SDS011;6652;48.802;9.190;2023-07-29T14:28:34;2.72;;;1.55;;
13173;SDS011;6652;48.802;9.190;2023-07-29T14:31:01;2.40;;;1.08;;
13173;SDS011;6652;48.802;9.190;2023-07-29T14:33:28;1.48;;;1.35;;
13173;SDS011;6652;48.802;9.190;2023-07-29T14:35:55;2.05;;;1.52;;
13173;SDS011;6652;48.802;9.190;2023-07-29T14:38:23;3.15;;;1.60;;
13173;SDS011;6652;48.802;9.190;2023-07-29T14:40:51;3.85;;;1.70;;
13173;SDS011;6652;48.802;9.190;2023-07-29T14:43:21;1.63;;;1.40;;
13173;SDS011;6652;48.802;9.190;2023-07-29T14:45:48;5.00;;;1.50;;
13173;SDS011;6652;48.802;9.190;2023-07-29T14:48:15;3.88;;;1.73;;
13173;SDS011;6652;48.802;9.190;2023-07-29T14:50:42;2.70;;;1.48;;
13173;SDS011;6652;48.802;9.190;2023-07-29T14:53:09;4.55;;;1.50;;
13173;SDS011;6652;48.802;9.190;2023-07-29T14:55:37;2.15;;;1.77;;
13173;SDS011;6652;48.802;9.190;2023-07-29T14:58:04;3.10;;;1.20;;
13173;SDS011;6652;48.802;9.190;2023-07-29T15:00:31;1.50;;;1.40;;
13173;SDS011;6652;48.802;9.190;2023-07-29T15:02:58;2.58;;;1.50;;
13173;SDS011;6652;48.802;9.190;2023-07-29T15:05:25;3.28;;;1.65;;
13173;SDS011;6652;48.802;9.190;2023-07-29T15:07:52;1.77;;;1.50;;
13173;SDS011;6652;48.802;9.190;2023-07-29T15:10:19;7.05;;;1.83;;
13173;SDS011;6652;48.802;9.190;2023-07-29T15:12:48;1.92;;;1.38;;
13173;SDS011;6652;48.802;9.190;2023-07-29T15:15:14;1.38;;;1.27;;
13173;SDS011;6652;48.802;9.190;2023-07-29T15:17:41;3.72;;;1.40;;